createdAt,value
2018-09-05T00:00:58.415Z,18.62
2018-09-05T00:01:58.423Z,18.62
2018-09-05T00:02:58.433Z,18.65
2018-09-05T00:03:58.430Z,18.55
2018-09-05T00:04:58.457Z,18.54
2018-09-05T00:05:58.431Z,18.54
2018-09-05T00:06:58.420Z,18.66
2018-09-05T00:07:58.455Z,18.62
2018-09-05T00:08:58.456Z,18.62
2018-09-05T00:09:58.437Z,18.55
2018-09-05T00:10:58.447Z,18.60
2018-09-05T00:11:58.437Z,18.52
2018-09-05T00:12:58.453Z,18.62
2018-09-05T00:13:58.463Z,18.66
2018-09-05T00:14:59.135Z,18.66
2018-09-05T00:15:58.445Z,18.65
2018-09-05T00:16:58.472Z,18.65
2018-09-05T00:17:58.455Z,18.51
2018-09-05T00:18:58.466Z,18.66
2018-09-05T00:19:58.451Z,18.50
2018-09-05T00:20:58.474Z,18.51
2018-09-05T00:21:58.474Z,18.62
2018-09-05T00:22:58.460Z,18.57
2018-09-05T00:23:58.467Z,18.55
2018-09-05T00:24:58.471Z,18.62
2018-09-05T00:25:58.483Z,18.57
2018-09-05T00:26:58.479Z,18.65
2018-09-05T00:27:59.135Z,18.50
2018-09-05T00:28:58.506Z,18.51
2018-09-05T00:29:58.496Z,18.63
2018-09-05T00:30:58.495Z,18.55
2018-09-05T00:31:58.490Z,18.50
2018-09-05T00:32:58.504Z,18.51
2018-09-05T00:33:58.500Z,18.54
2018-09-05T00:34:58.500Z,18.50
2018-09-05T00:35:58.505Z,18.48
2018-09-05T00:36:58.520Z,18.52
2018-09-05T00:37:58.519Z,18.50
2018-09-05T00:38:58.495Z,18.57
2018-09-05T00:39:58.504Z,18.51
2018-09-05T00:40:58.602Z,18.48
2018-09-05T00:41:58.561Z,18.55
2018-09-05T00:42:58.511Z,18.52
2018-09-05T00:43:58.532Z,18.58
2018-09-05T00:44:58.514Z,18.52
2018-09-05T00:45:58.528Z,18.54
2018-09-05T00:46:58.519Z,18.57
2018-09-05T00:47:58.523Z,18.57
2018-09-05T00:48:58.534Z,18.57
2018-09-05T00:49:58.528Z,18.54
2018-09-05T00:50:58.541Z,18.50
2018-09-05T00:51:58.569Z,18.54
2018-09-05T00:52:58.567Z,18.48
2018-09-05T00:53:58.565Z,18.55
2018-09-05T00:54:58.547Z,18.52
2018-09-05T00:55:58.560Z,18.52
2018-09-05T00:56:58.555Z,18.45
2018-09-05T00:57:58.556Z,18.48
2018-09-05T00:58:58.650Z,18.47
2018-09-05T00:59:58.557Z,18.44
2018-09-05T01:00:58.588Z,18.47
2018-09-05T01:01:58.622Z,18.39
2018-09-05T01:02:58.570Z,18.33
2018-09-05T01:03:58.581Z,18.37
2018-09-05T01:04:58.580Z,18.33
2018-09-05T01:05:58.565Z,18.33
2018-09-05T01:06:58.578Z,18.32
2018-09-05T01:07:58.568Z,18.32
2018-09-05T01:08:58.568Z,18.25
2018-09-05T01:09:58.565Z,18.29
2018-09-05T01:10:58.635Z,18.32
2018-09-05T01:11:58.580Z,18.32
2018-09-05T01:12:58.582Z,18.32
2018-09-05T01:13:58.671Z,18.32
2018-09-05T01:14:58.610Z,18.30
2018-09-05T01:15:58.610Z,18.26
2018-09-05T01:16:58.608Z,18.36
2018-09-05T01:17:58.624Z,18.35
2018-09-05T01:18:58.599Z,18.29
2018-09-05T01:19:58.603Z,18.36
2018-09-05T01:20:58.607Z,18.27
2018-09-05T01:21:59.167Z,18.39
2018-09-05T01:22:58.606Z,18.33
2018-09-05T01:23:58.612Z,18.32
2018-09-05T01:24:58.642Z,18.37
2018-09-05T01:25:58.643Z,18.35
2018-09-05T01:26:58.611Z,18.44
2018-09-05T01:27:58.618Z,18.35
2018-09-05T01:28:58.620Z,18.37
2018-09-05T01:29:58.626Z,18.41
2018-09-05T01:30:58.632Z,18.39
2018-09-05T01:31:58.629Z,18.39
2018-09-05T01:32:58.652Z,18.32
2018-09-05T01:33:58.680Z,18.32
2018-09-05T01:34:58.790Z,18.41
2018-09-05T01:35:58.644Z,18.37
2018-09-05T01:36:58.668Z,18.33
2018-09-05T01:37:58.649Z,18.41
2018-09-05T01:38:58.656Z,18.42
2018-09-05T01:39:58.670Z,18.37
2018-09-05T01:40:58.688Z,18.33
2018-09-05T01:41:58.656Z,18.32
2018-09-05T01:42:58.663Z,18.32
2018-09-05T01:43:58.664Z,18.30
2018-09-05T01:44:58.656Z,18.26
2018-09-05T01:45:58.688Z,18.27
2018-09-05T01:46:58.668Z,18.25
2018-09-05T01:47:58.677Z,18.23
2018-09-05T01:48:58.680Z,18.21
2018-09-05T01:49:58.686Z,18.25
2018-09-05T01:50:58.676Z,18.21
2018-09-05T01:51:58.690Z,18.21
2018-09-05T01:52:58.794Z,18.11
2018-09-05T01:53:58.699Z,18.17
2018-09-05T01:54:58.677Z,18.18
2018-09-05T01:55:58.695Z,18.08
2018-09-05T01:56:58.683Z,17.96
2018-09-05T01:57:58.688Z,17.96
2018-09-05T01:58:58.694Z,18.00
2018-09-05T01:59:58.715Z,18.03
2018-09-05T02:00:58.714Z,18.03
2018-09-05T02:01:58.699Z,17.93
2018-09-05T02:02:58.717Z,18.02
2018-09-05T02:03:58.709Z,18.03
2018-09-05T02:04:58.706Z,17.95
2018-09-05T02:05:58.796Z,17.95
2018-09-05T02:06:59.174Z,17.95
2018-09-05T02:07:58.713Z,18.02
2018-09-05T02:08:58.725Z,17.93
2018-09-05T02:09:58.760Z,17.97
2018-09-05T02:10:58.715Z,17.93
2018-09-05T02:11:58.723Z,17.93
2018-09-05T02:12:58.737Z,17.89
2018-09-05T02:13:58.734Z,17.99
2018-09-05T02:14:58.757Z,17.96
2018-09-05T02:15:58.750Z,17.95
2018-09-05T02:16:58.746Z,17.90
2018-09-05T02:17:58.735Z,17.89
2018-09-05T02:26:09.599Z,17.87
2018-09-05T02:27:08.615Z,17.81
2018-09-05T02:28:06.601Z,17.89
2018-09-05T02:29:04.099Z,17.92
2018-09-05T02:30:04.102Z,17.79
2018-09-05T02:31:04.102Z,17.82
2018-09-05T02:32:03.334Z,17.84
2018-09-05T02:33:03.391Z,17.79
2018-09-05T02:34:03.308Z,17.81
2018-09-05T02:35:03.312Z,17.79
2018-09-05T02:36:03.330Z,17.79
2018-09-05T02:37:03.314Z,17.84
2018-09-05T02:38:03.325Z,17.81
2018-09-05T02:39:03.338Z,17.77
2018-09-05T02:40:03.341Z,17.79
2018-09-05T02:41:03.332Z,17.75
2018-09-05T02:42:03.337Z,17.75
2018-09-05T02:43:03.326Z,17.81
2018-09-05T02:44:04.099Z,17.82
2018-09-05T02:45:03.341Z,17.79
2018-09-05T02:46:03.354Z,17.78
2018-09-05T02:47:04.098Z,17.81
2018-09-05T02:48:03.450Z,17.79
2018-09-05T02:49:03.345Z,17.75
2018-09-05T02:50:03.401Z,17.81
2018-09-05T02:51:03.358Z,17.79
2018-09-05T02:52:03.362Z,17.74
2018-09-05T02:53:03.414Z,17.72
2018-09-05T02:54:03.356Z,17.74
2018-09-05T02:55:03.381Z,17.75
2018-09-05T02:56:03.375Z,17.71
2018-09-05T02:57:03.364Z,17.77
2018-09-05T02:58:03.403Z,17.74
2018-09-05T02:59:03.367Z,17.72
2018-09-05T03:00:03.373Z,17.78
2018-09-05T03:01:03.436Z,17.66
2018-09-05T03:02:03.390Z,17.66
2018-09-05T03:03:03.384Z,17.63
2018-09-05T03:04:03.380Z,17.63
2018-09-05T03:05:03.384Z,17.64
2018-09-05T03:06:03.400Z,17.64
2018-09-05T03:07:03.383Z,17.54
2018-09-05T03:08:03.392Z,17.68
2018-09-05T03:09:03.394Z,17.59
2018-09-05T03:10:03.397Z,17.63
2018-09-05T03:11:03.394Z,17.62
2018-09-05T03:12:03.402Z,17.64
2018-09-05T03:13:03.407Z,17.59
2018-09-05T03:14:03.406Z,17.59
2018-09-05T03:15:03.399Z,17.64
2018-09-05T03:16:03.414Z,17.58
2018-09-05T03:17:03.413Z,17.66
2018-09-05T03:18:03.414Z,17.64
2018-09-05T03:19:04.109Z,17.48
2018-09-05T03:20:03.421Z,17.64
2018-09-05T03:21:03.418Z,17.58
2018-09-05T03:22:03.421Z,17.68
2018-09-05T03:23:03.434Z,17.68
2018-09-05T03:24:03.437Z,17.54
2018-09-05T03:25:03.420Z,17.51
2018-09-05T03:26:03.433Z,17.52
2018-09-05T03:27:03.437Z,17.54
2018-09-05T03:28:03.478Z,17.37
2018-09-05T03:29:03.430Z,17.54
2018-09-05T03:30:03.459Z,17.52
2018-09-05T03:31:03.446Z,17.49
2018-09-05T03:32:03.474Z,17.54
2018-09-05T03:33:03.486Z,17.49
2018-09-05T03:34:03.447Z,17.48
2018-09-05T03:35:03.453Z,17.56
2018-09-05T03:36:03.458Z,17.40
2018-09-05T03:37:03.461Z,17.51
2018-09-05T03:38:03.554Z,17.55
2018-09-05T03:39:03.459Z,17.51
2018-09-05T03:40:03.460Z,17.54
2018-09-05T03:41:03.468Z,17.51
2018-09-05T03:42:03.452Z,17.54
2018-09-05T03:43:03.473Z,17.54
2018-09-05T03:44:03.506Z,17.49
2018-09-05T03:45:03.640Z,17.51
2018-09-05T03:46:03.474Z,17.49
2018-09-05T03:47:03.502Z,17.54
2018-09-05T03:48:03.479Z,17.41
2018-09-05T03:49:03.499Z,17.54
2018-09-05T03:50:03.479Z,17.46
2018-09-05T03:51:03.480Z,17.41
2018-09-05T03:52:03.491Z,17.48
2018-09-05T03:53:03.488Z,17.43
2018-09-05T03:54:03.483Z,17.38
2018-09-05T03:55:03.670Z,17.38
2018-09-05T03:56:03.515Z,17.46
2018-09-05T03:57:03.494Z,17.44
2018-09-05T03:58:03.528Z,17.40
2018-09-05T03:59:03.530Z,17.38
2018-09-05T04:00:03.516Z,17.40
2018-09-05T04:01:03.509Z,17.46
2018-09-05T04:02:03.517Z,17.36
2018-09-05T04:03:03.506Z,17.44
2018-09-05T04:04:03.521Z,17.36
2018-09-05T04:05:03.549Z,17.30
2018-09-05T04:06:03.516Z,17.36
2018-09-05T04:07:03.509Z,17.33
2018-09-05T04:08:03.605Z,17.28
2018-09-05T04:09:03.515Z,17.28
2018-09-05T04:10:03.530Z,17.28
2018-09-05T04:11:03.522Z,17.21
2018-09-05T04:12:03.532Z,17.25
2018-09-05T04:13:03.622Z,17.19
2018-09-05T04:14:03.547Z,17.23
2018-09-05T04:15:03.537Z,17.21
2018-09-05T04:16:03.543Z,17.16
2018-09-05T04:17:03.554Z,17.21
2018-09-05T04:18:03.540Z,17.21
2018-09-05T04:19:03.541Z,17.15
2018-09-05T04:20:03.553Z,17.21
2018-09-05T04:21:03.540Z,17.16
2018-09-05T04:22:03.599Z,17.21
2018-09-05T04:23:03.583Z,17.14
2018-09-05T04:24:03.595Z,17.07
2018-09-05T04:25:03.560Z,17.08
2018-09-05T04:26:04.139Z,17.16
2018-09-05T04:27:03.566Z,17.16
2018-09-05T04:28:03.598Z,17.18
2018-09-05T04:29:03.569Z,17.12
2018-09-05T04:30:03.595Z,17.15
2018-09-05T04:31:03.570Z,17.18
2018-09-05T04:32:03.590Z,17.16
2018-09-05T04:33:03.569Z,17.15
2018-09-05T04:34:03.572Z,17.19
2018-09-05T04:35:03.615Z,17.19
2018-09-05T04:36:03.582Z,17.25
2018-09-05T04:37:03.594Z,17.28
2018-09-05T04:38:03.588Z,17.15
2018-09-05T04:39:03.638Z,17.28
2018-09-05T04:40:03.592Z,17.14
2018-09-05T04:41:03.595Z,17.26
2018-09-05T04:42:03.588Z,17.22
2018-09-05T04:43:03.617Z,17.23
2018-09-05T04:44:03.589Z,17.21
2018-09-05T04:45:03.634Z,17.19
2018-09-05T04:46:03.617Z,17.18
2018-09-05T04:47:03.616Z,17.15
2018-09-05T04:48:03.622Z,17.16
2018-09-05T04:49:04.150Z,17.19
2018-09-05T04:50:03.615Z,17.16
2018-09-05T04:51:03.607Z,17.16
2018-09-05T04:52:03.632Z,17.18
2018-09-05T04:53:03.605Z,17.19
2018-09-05T04:54:03.615Z,17.16
2018-09-05T04:55:03.617Z,17.14
2018-09-05T04:56:03.636Z,17.12
2018-09-05T04:57:03.628Z,17.15
2018-09-05T04:58:03.622Z,17.14
2018-09-05T04:59:03.635Z,17.21
2018-09-05T05:00:03.686Z,17.16
2018-09-05T05:01:03.631Z,17.26
2018-09-05T05:02:03.639Z,17.26
2018-09-05T05:03:03.666Z,17.26
2018-09-05T05:04:03.658Z,17.26
2018-09-05T05:05:03.685Z,17.36
2018-09-05T05:06:03.655Z,17.33
2018-09-05T05:07:03.649Z,17.33
2018-09-05T05:08:03.670Z,17.25
2018-09-05T05:09:03.644Z,17.31
2018-09-05T05:10:03.664Z,17.33
2018-09-05T05:11:03.660Z,17.41
2018-09-05T05:12:03.656Z,17.41
2018-09-05T05:13:03.647Z,17.38
2018-09-05T05:14:03.659Z,17.46
2018-09-05T05:15:03.704Z,17.46
2018-09-05T05:16:03.672Z,17.51
2018-09-05T05:17:03.669Z,17.52
2018-09-05T05:18:03.677Z,17.62
2018-09-05T05:19:03.676Z,17.62
2018-09-05T05:20:03.665Z,17.66
2018-09-05T05:21:03.697Z,17.62
2018-09-05T05:22:03.698Z,17.64
2018-09-05T05:23:03.700Z,17.59
2018-09-05T05:24:03.687Z,17.68
2018-09-05T05:25:03.756Z,17.75
2018-09-05T05:26:03.688Z,17.82
2018-09-05T05:27:03.700Z,17.84
2018-09-05T05:28:03.695Z,17.93
2018-09-05T05:29:03.711Z,17.95
2018-09-05T05:30:03.751Z,17.96
2018-09-05T05:31:03.713Z,18.00
2018-09-05T05:32:03.741Z,18.08
2018-09-05T05:33:03.697Z,18.18
2018-09-05T05:34:03.754Z,18.23
2018-09-05T05:35:03.754Z,18.66
2018-09-05T05:36:03.715Z,19.19
2018-09-05T05:37:03.721Z,19.69
2018-09-05T05:38:03.743Z,20.14
2018-09-05T05:39:03.707Z,20.38
2018-09-05T05:40:03.761Z,20.42
2018-09-05T05:41:03.722Z,20.70
2018-09-05T05:42:03.724Z,21.09
2018-09-05T05:43:03.735Z,21.21
2018-09-05T05:44:03.751Z,21.50
2018-09-05T05:45:03.727Z,21.71
2018-09-05T05:46:03.788Z,22.10
2018-09-05T05:47:03.763Z,22.28
2018-09-05T05:48:03.738Z,22.45
2018-09-05T05:49:03.767Z,22.65
2018-09-05T05:50:04.677Z,22.73
2018-09-05T05:51:03.751Z,22.73
2018-09-05T05:52:03.751Z,22.86
2018-09-05T05:53:03.738Z,23.02
2018-09-05T05:54:03.748Z,23.16
2018-09-05T05:55:03.951Z,23.07
2018-09-05T05:56:03.759Z,23.33
2018-09-05T05:57:03.758Z,23.63
2018-09-05T05:58:03.755Z,23.40
2018-09-05T05:59:03.758Z,23.39
2018-09-05T06:00:03.761Z,23.76
2018-09-05T06:01:03.854Z,23.91
2018-09-05T06:02:03.792Z,23.91
2018-09-05T06:03:03.771Z,24.18
2018-09-05T06:04:03.801Z,24.18
2018-09-05T06:05:03.813Z,24.45
2018-09-05T06:06:03.843Z,23.50
2018-09-05T06:07:03.805Z,23.23
2018-09-05T06:08:03.789Z,23.35
2018-09-05T06:09:03.790Z,23.19
2018-09-05T06:10:03.827Z,23.61
2018-09-05T06:11:03.833Z,23.90
2018-09-05T06:12:03.800Z,23.93
2018-09-05T06:13:03.803Z,24.15
2018-09-05T06:14:04.688Z,24.28
2018-09-05T06:15:03.810Z,24.61
2018-09-05T06:16:04.791Z,24.61
2018-09-05T06:17:03.842Z,24.90
2018-09-05T06:18:03.923Z,24.87
2018-09-05T06:19:03.828Z,25.14
2018-09-05T06:20:03.936Z,25.15
2018-09-05T06:21:03.924Z,25.23
2018-09-05T06:22:03.862Z,25.46
2018-09-05T06:23:03.884Z,25.77
2018-09-05T06:24:03.905Z,25.62
2018-09-05T06:25:03.851Z,25.67
2018-09-05T06:26:03.865Z,25.85
2018-09-05T06:27:03.948Z,25.80
2018-09-05T06:28:03.897Z,25.91
2018-09-05T06:29:03.859Z,26.06
2018-09-05T06:30:03.991Z,26.32
2018-09-05T06:31:04.035Z,25.91
2018-09-05T06:32:03.984Z,25.85
2018-09-05T06:33:03.880Z,25.70
2018-09-05T06:34:03.906Z,25.70
2018-09-05T06:35:03.890Z,26.29
2018-09-05T06:36:03.903Z,26.36
2018-09-05T06:37:03.897Z,26.36
2018-09-05T06:38:03.943Z,26.65
2018-09-05T06:39:03.986Z,26.91
2018-09-05T06:40:03.928Z,27.19
2018-09-05T06:41:03.938Z,27.40
2018-09-05T06:42:03.940Z,26.77
2018-09-05T06:43:03.942Z,26.85
2018-09-05T06:44:04.002Z,27.24
2018-09-05T06:45:03.989Z,27.47
2018-09-05T06:46:04.011Z,27.55
2018-09-05T06:47:03.954Z,27.60
2018-09-05T06:48:04.034Z,27.77
2018-09-05T06:49:03.975Z,27.81
2018-09-05T06:50:04.116Z,27.81
2018-09-05T06:51:04.067Z,28.07
2018-09-05T06:52:04.018Z,28.07
2018-09-05T06:53:04.011Z,27.92
2018-09-05T06:54:04.075Z,27.50
2018-09-05T06:55:04.707Z,27.17
2018-09-05T06:56:04.059Z,27.41
2018-09-05T06:57:04.042Z,27.50
2018-09-05T06:58:04.086Z,27.31
2018-09-05T06:59:04.075Z,27.06
2018-09-05T07:00:04.128Z,27.50
2018-09-05T07:01:04.392Z,28.17
2018-09-05T07:02:04.162Z,28.56
2018-09-05T07:03:04.156Z,28.76
2018-09-05T07:04:04.149Z,28.88
2018-09-05T07:05:04.713Z,28.33
2018-09-05T07:06:04.148Z,28.11
2018-09-05T07:07:04.227Z,27.54
2018-09-05T07:08:04.227Z,26.87
2018-09-05T07:09:04.135Z,27.60
2018-09-05T07:10:04.166Z,27.74
2018-09-05T07:11:04.147Z,28.19
2018-09-05T07:12:04.188Z,28.68
2018-09-05T07:13:04.192Z,28.34
2018-09-05T07:14:04.188Z,28.56
2018-09-05T07:15:04.183Z,28.25
2018-09-05T07:16:04.202Z,28.15
2018-09-05T07:17:04.210Z,28.27
2018-09-05T07:18:04.520Z,27.96
2018-09-05T07:19:04.326Z,28.49
2018-09-05T07:20:04.327Z,28.48
2018-09-05T07:21:07.175Z,28.68
2018-09-05T07:22:04.302Z,28.06
2018-09-05T07:23:04.252Z,28.25
2018-09-05T07:24:04.294Z,27.92
2018-09-05T07:25:04.382Z,28.17
2018-09-05T07:26:04.352Z,28.74
2018-09-05T07:27:04.306Z,29.14
2018-09-05T07:28:04.311Z,29.63
2018-09-05T07:29:04.364Z,29.58
2018-09-05T07:30:04.368Z,29.55
2018-09-05T07:32:58.465Z,29.60
2018-09-05T07:33:37.820Z,30.10
2018-09-05T07:34:36.637Z,29.94
2018-09-05T07:35:36.716Z,29.00
2018-09-05T07:36:36.617Z,28.70
2018-09-05T07:37:36.629Z,29.02
2018-09-05T07:38:37.390Z,28.92
2018-09-05T07:39:37.417Z,28.71
2018-09-05T07:40:36.780Z,28.62
2018-09-05T07:41:36.765Z,28.85
2018-09-05T07:42:36.719Z,29.06
2018-09-05T07:43:36.751Z,29.76
2018-09-05T07:44:36.728Z,29.76
2018-09-05T07:45:36.695Z,29.55
2018-09-05T07:46:37.405Z,29.65
2018-09-05T07:47:36.788Z,29.89
2018-09-05T07:48:36.898Z,29.27
2018-09-05T07:49:36.796Z,29.43
2018-09-05T07:50:36.812Z,29.00
2018-09-05T07:51:36.806Z,29.30
2018-09-05T07:52:36.849Z,29.09
2018-09-05T07:53:36.903Z,29.31
2018-09-05T07:54:36.828Z,29.98
2018-09-05T07:55:37.332Z,29.60
2018-09-05T07:56:36.995Z,28.90
2018-09-05T07:57:36.972Z,28.96
2018-09-05T07:58:36.879Z,30.11
2018-09-05T07:59:37.160Z,30.24
2018-09-05T08:00:36.902Z,30.46
2018-09-05T08:01:37.033Z,30.45
2018-09-05T08:02:37.169Z,30.86
2018-09-05T08:03:36.932Z,29.71
2018-09-05T08:04:36.908Z,30.29
2018-09-05T08:05:37.408Z,30.15
2018-09-05T08:06:36.995Z,30.26
2018-09-05T08:07:37.017Z,30.08
2018-09-05T08:08:37.020Z,29.57
2018-09-05T08:09:36.992Z,29.97
2018-09-05T08:10:37.183Z,30.45
2018-09-05T08:11:37.038Z,31.17
2018-09-05T08:12:37.033Z,31.58
2018-09-05T08:13:37.022Z,32.29
2018-09-05T08:14:37.073Z,32.47
2018-09-05T08:15:37.050Z,32.22
2018-09-05T08:16:37.100Z,31.95
2018-09-05T08:17:37.229Z,31.34
2018-09-05T08:18:37.424Z,30.86
2018-09-05T08:19:37.202Z,31.21
2018-09-05T08:21:37.146Z,31.09
2018-09-05T08:22:37.944Z,31.48
2018-09-05T08:23:37.666Z,30.86
2018-09-05T08:24:37.375Z,29.82
2018-09-05T08:25:37.249Z,30.47
2018-09-05T08:26:37.246Z,31.21
2018-09-05T08:27:37.255Z,31.01
2018-09-05T08:28:37.242Z,30.47
2018-09-05T08:29:37.262Z,31.06
2018-09-05T08:30:37.263Z,31.66
2018-09-05T08:31:37.287Z,32.06
2018-09-05T08:32:37.416Z,32.22
2018-09-05T08:33:37.320Z,32.10
2018-09-05T08:34:37.387Z,32.00
2018-09-05T08:35:37.534Z,32.57
2018-09-05T08:36:37.636Z,33.38
2018-09-05T08:37:38.120Z,33.44
2018-09-05T08:38:37.390Z,33.28
2018-09-05T08:39:37.359Z,32.44
2018-09-05T08:40:37.414Z,32.22
2018-09-05T08:41:37.401Z,31.68
2018-09-05T08:42:37.447Z,32.21
2018-09-05T08:43:37.624Z,32.55
2018-09-05T08:44:37.542Z,32.29
2018-09-05T08:45:37.803Z,32.03
2018-09-05T08:46:37.499Z,32.56
2018-09-05T08:47:37.592Z,33.19
2018-09-05T08:48:37.940Z,33.51
2018-09-05T08:49:37.560Z,33.26
2018-09-05T08:50:37.537Z,33.32
2018-09-05T08:51:37.566Z,33.42
2018-09-05T08:52:37.644Z,33.82
2018-09-05T08:53:37.610Z,33.72
2018-09-05T08:54:37.578Z,33.93
2018-09-05T08:55:37.654Z,34.39
2018-09-05T08:56:37.643Z,34.12
2018-09-05T08:57:37.742Z,33.28
2018-09-05T08:58:37.749Z,31.51
2018-09-05T08:59:37.712Z,32.03
2018-09-05T09:00:37.730Z,32.57
2018-09-05T09:01:37.709Z,33.41
2018-09-05T09:02:37.954Z,32.99
2018-09-05T09:03:37.758Z,33.50
2018-09-05T09:04:37.793Z,32.88
2018-09-05T09:05:37.778Z,32.47
2018-09-05T09:06:37.831Z,32.72
2018-09-05T09:07:37.788Z,33.21
2018-09-05T09:08:37.859Z,33.87
2018-09-05T09:09:38.451Z,34.52
2018-09-05T09:10:37.841Z,33.29
2018-09-05T09:11:37.921Z,32.99
2018-09-05T09:12:38.472Z,33.21
2018-09-05T09:13:38.032Z,33.37
2018-09-05T09:14:37.991Z,33.68
2018-09-05T09:15:37.948Z,34.42
2018-09-05T09:16:37.946Z,34.43
2018-09-05T09:17:37.964Z,33.81
2018-09-05T09:18:37.993Z,34.17
2018-09-05T09:19:38.037Z,33.07
2018-09-05T09:20:38.078Z,32.30
2018-09-05T09:21:38.079Z,33.06
2018-09-05T09:22:38.965Z,33.03
2018-09-05T09:23:38.090Z,33.31
2018-09-05T09:24:38.184Z,32.41
2018-09-05T09:25:38.114Z,32.03
2018-09-05T09:26:38.103Z,32.13
2018-09-05T09:27:38.205Z,32.00
2018-09-05T09:28:38.224Z,33.04
2018-09-05T09:29:38.184Z,32.97
2018-09-05T09:30:38.242Z,33.34
2018-09-05T09:31:38.261Z,33.00
2018-09-05T09:32:38.246Z,33.53
2018-09-05T09:33:38.248Z,34.10
2018-09-05T09:34:38.273Z,33.23
2018-09-05T09:35:38.367Z,32.87
2018-09-05T09:36:38.281Z,33.41
2018-09-05T09:37:38.301Z,33.93
2018-09-05T09:38:38.322Z,32.25
2018-09-05T09:39:38.388Z,33.11
2018-09-05T09:40:38.492Z,32.99
2018-09-05T09:41:38.430Z,32.70
2018-09-05T09:42:38.429Z,31.63
2018-09-05T09:43:38.564Z,31.26
2018-09-05T09:44:38.511Z,31.35
2018-09-05T09:45:38.492Z,31.01
2018-09-05T09:46:38.505Z,31.58
2018-09-05T09:47:38.474Z,32.10
2018-09-05T09:48:38.558Z,32.75
2018-09-05T09:49:38.558Z,33.49
2018-09-05T09:50:38.711Z,33.78
2018-09-05T09:51:38.875Z,33.37
2018-09-05T09:52:38.617Z,32.74
2018-09-05T09:53:38.644Z,32.25
2018-09-05T09:54:38.631Z,32.67
2018-09-05T09:55:38.659Z,33.32
2018-09-05T09:56:39.896Z,32.29
2018-09-05T09:57:38.731Z,32.21
2018-09-05T09:58:39.436Z,32.13
2018-09-05T09:59:39.741Z,32.40
2018-09-05T10:00:39.106Z,31.95
2018-09-05T10:01:38.770Z,32.43
2018-09-05T10:02:38.798Z,32.88
2018-09-05T10:03:38.985Z,33.00
2018-09-05T10:04:38.929Z,32.55
2018-09-05T10:05:38.907Z,32.87
2018-09-05T10:06:38.884Z,33.65
2018-09-05T10:07:38.883Z,33.54
2018-09-05T10:08:38.917Z,33.44
2018-09-05T10:09:38.951Z,32.97
2018-09-05T10:10:39.149Z,32.77
2018-09-05T10:11:39.028Z,33.68
2018-09-05T10:12:39.008Z,34.27
2018-09-05T10:13:39.006Z,34.52
2018-09-05T10:14:38.989Z,34.39
2018-09-05T10:15:39.053Z,34.77
2018-09-05T10:16:41.683Z,34.52
2018-09-05T10:17:39.129Z,34.99
2018-09-05T10:18:39.090Z,34.47
2018-09-05T10:19:39.128Z,34.84
2018-09-05T10:20:39.163Z,34.46
2018-09-05T10:21:39.192Z,33.19
2018-09-05T10:22:39.174Z,32.25
2018-09-05T10:23:39.203Z,32.51
2018-09-05T10:24:39.215Z,32.75
2018-09-05T10:25:39.265Z,31.89
2018-09-05T10:26:39.339Z,32.19
2018-09-05T10:27:39.756Z,32.10
2018-09-05T10:28:39.385Z,32.87
2018-09-05T10:29:39.518Z,32.26
2018-09-05T10:31:42.260Z,33.81
2018-09-05T10:32:39.361Z,33.93
2018-09-05T10:33:39.380Z,34.43
2018-09-05T10:34:39.383Z,34.70
2018-09-05T10:35:39.423Z,34.75
2018-09-05T10:36:39.422Z,34.25
2018-09-05T10:37:39.853Z,34.61
2018-09-05T10:38:39.586Z,34.96
2018-09-05T10:39:39.566Z,34.81
2018-09-05T10:40:39.494Z,35.07
2018-09-05T10:41:39.525Z,34.46
2018-09-05T10:42:40.529Z,33.44
2018-09-05T10:43:39.612Z,32.52
2018-09-05T10:44:39.585Z,33.31
2018-09-05T10:45:39.650Z,33.03
2018-09-05T10:46:42.463Z,33.63
2018-09-05T10:47:39.725Z,34.10
2018-09-05T10:48:40.025Z,34.42
2018-09-05T10:49:39.806Z,34.00
2018-09-05T10:50:39.774Z,33.37
2018-09-05T10:53:27.913Z,33.47
2018-09-05T10:54:12.838Z,32.57
2018-09-05T10:55:12.844Z,32.77
2018-09-05T10:56:12.878Z,32.84
2018-09-05T10:57:12.854Z,32.92
2018-09-05T10:58:13.882Z,32.55
2018-09-05T10:59:12.974Z,32.03
2018-09-05T11:00:13.006Z,31.72
2018-09-05T11:01:13.818Z,32.03
2018-09-05T11:02:13.016Z,32.66
2018-09-05T11:03:13.810Z,33.28
2018-09-05T11:04:13.065Z,32.99
2018-09-05T11:05:13.096Z,33.51
2018-09-05T11:06:13.059Z,33.97
2018-09-05T11:07:13.127Z,33.50
2018-09-05T11:08:13.341Z,32.84
2018-09-05T11:09:13.144Z,33.14
2018-09-05T11:10:13.157Z,33.03
2018-09-05T11:11:13.310Z,32.89
2018-09-05T11:12:13.226Z,32.51
2018-09-05T11:13:13.212Z,31.99
2018-09-05T11:14:13.264Z,31.95
2018-09-05T11:15:13.282Z,32.29
2018-09-05T11:16:13.219Z,32.77
2018-09-05T11:17:13.297Z,32.10
2018-09-05T11:18:13.227Z,31.23
2018-09-05T11:19:13.265Z,31.12
2018-09-05T11:20:13.317Z,31.16
2018-09-05T11:21:13.501Z,31.14
2018-09-05T11:22:13.381Z,31.04
2018-09-05T11:23:14.315Z,30.77
2018-09-05T11:24:13.361Z,30.69
2018-09-05T11:25:13.819Z,30.61
2018-09-05T11:26:13.393Z,30.26
2018-09-05T11:27:13.389Z,29.51
2018-09-05T11:28:13.610Z,29.52
2018-09-05T11:29:13.558Z,29.46
2018-09-05T11:30:13.537Z,29.61
2018-09-05T11:31:13.520Z,29.60
2018-09-05T11:32:14.878Z,29.15
2018-09-05T11:33:13.776Z,29.02
2018-09-05T11:34:13.629Z,28.89
2018-09-05T11:35:13.552Z,29.02
2018-09-05T11:36:13.580Z,28.89
2018-09-05T11:37:13.540Z,28.88
2018-09-05T11:38:13.510Z,29.09
2018-09-05T11:39:13.541Z,29.30
2018-09-05T11:40:13.616Z,29.34
2018-09-05T11:41:13.572Z,29.18
2018-09-05T11:42:13.572Z,29.23
2018-09-05T11:43:13.678Z,29.41
2018-09-05T11:44:13.608Z,29.45
2018-09-05T11:45:13.642Z,29.73
2018-09-05T11:46:13.676Z,30.01
2018-09-05T11:47:13.733Z,29.82
2018-09-05T11:48:13.753Z,29.68
2018-09-05T11:49:14.339Z,29.67
2018-09-05T11:50:13.799Z,29.58
2018-09-05T11:51:13.789Z,29.16
2018-09-05T11:52:13.817Z,28.89
2018-09-05T11:53:13.898Z,28.71
2018-09-05T11:54:14.550Z,29.02
2018-09-05T11:55:13.861Z,29.34
2018-09-05T11:56:13.801Z,29.61
2018-09-05T11:57:13.832Z,29.74
2018-09-05T11:58:13.765Z,29.92
2018-09-05T11:59:13.770Z,29.80
2018-09-05T12:00:13.887Z,29.73
2018-09-05T12:01:13.823Z,29.64
2018-09-05T12:02:13.840Z,29.95
2018-09-05T12:03:13.836Z,30.16
2018-09-05T12:04:13.794Z,29.90
2018-09-05T12:05:14.016Z,29.74
2018-09-05T12:06:13.995Z,29.67
2018-09-05T12:07:14.612Z,29.64
2018-09-05T12:08:13.848Z,29.67
2018-09-05T12:09:13.892Z,29.58
2018-09-05T12:10:13.905Z,29.30
2018-09-05T12:11:14.061Z,29.49
2018-09-05T12:12:13.961Z,29.26
2018-09-05T12:13:14.053Z,29.45
2018-09-05T12:14:13.946Z,29.55
2018-09-05T12:15:14.895Z,29.85
2018-09-05T12:16:13.950Z,29.95
2018-09-05T12:17:35.038Z,30.00
2018-09-05T12:18:13.962Z,30.01
2018-09-05T12:19:13.971Z,30.02
2018-09-05T12:20:14.116Z,30.01
2018-09-05T12:21:13.960Z,29.98
2018-09-05T12:22:14.001Z,29.92
2018-09-05T12:23:13.973Z,29.73
2018-09-05T12:24:13.997Z,29.52
2018-09-05T12:25:15.839Z,29.53
2018-09-05T12:26:15.651Z,29.55
2018-09-05T12:27:14.327Z,29.41
2018-09-05T12:28:14.055Z,29.57
2018-09-05T12:29:14.056Z,29.60
2018-09-05T12:30:14.012Z,29.53
2018-09-05T12:31:14.042Z,29.52
2018-09-05T12:32:14.039Z,29.51
2018-09-05T12:33:14.244Z,29.34
2018-09-05T12:34:14.179Z,29.30
2018-09-05T12:35:18.716Z,29.52
2018-09-05T12:36:15.488Z,29.55
2018-09-05T12:37:14.388Z,29.58
2018-09-05T12:38:15.227Z,29.64
2018-09-05T12:39:35.326Z,29.46
2018-09-05T12:40:14.204Z,29.46
2018-09-05T12:41:14.215Z,29.42
2018-09-05T12:42:14.197Z,29.30
2018-09-05T12:43:14.139Z,29.06
2018-09-05T12:44:14.181Z,29.27
2018-09-05T12:45:14.152Z,29.27
2018-09-05T12:46:15.596Z,29.43
2018-09-05T12:47:14.178Z,29.51
2018-09-05T12:48:14.211Z,29.43
2018-09-05T12:49:14.220Z,29.31
2018-09-05T12:50:14.192Z,29.02
2018-09-05T12:51:14.324Z,28.98
2018-09-05T12:52:14.275Z,29.00
2018-09-05T12:53:14.214Z,28.93
2018-09-05T12:54:14.258Z,28.95
2018-09-05T12:55:14.221Z,28.90
2018-09-05T12:56:14.220Z,28.71
2018-09-05T12:57:14.240Z,28.74
2018-09-05T12:58:14.270Z,28.74
2018-09-05T12:59:14.325Z,28.64
2018-09-05T13:00:14.259Z,28.89
2018-09-05T13:01:14.281Z,28.95
2018-09-05T13:02:14.308Z,28.83
2018-09-05T13:03:14.347Z,28.64
2018-09-05T13:04:14.282Z,28.59
2018-09-05T13:05:14.394Z,28.73